sensor_id;sensor_type;location;lat;lon;timestamp;P1;durP1;ratioP1;P2;durP2;ratioP2
37455;SDS011;23316;50.718;7.328;2023-03-04T00:00:04;125.45;;;52.35;;
37455;SDS011;23316;50.718;7.328;2023-03-04T00:02:33;134.35;;;52.28;;
37455;SDS011;23316;50.718;7.328;2023-03-04T00:05:00;122.25;;;52.90;;
37455;SDS011;23316;50.718;7.328;2023-03-04T00:07:28;127.18;;;54.28;;
37455;SDS011;23316;50.718;7.328;2023-03-04T00:09:55;130.68;;;54.05;;
37455;SDS011;23316;50.718;7.328;2023-03-04T00:12:22;146.18;;;59.55;;
37455;SDS011;23316;50.718;7.328;2023-03-04T00:14:51;132.63;;;54.45;;
37455;SDS011;23316;50.718;7.328;2023-03-04T00:17:18;132.50;;;54.83;;
37455;SDS011;23316;50.718;7.328;2023-03-04T00:19:45;122.65;;;53.55;;
37455;SDS011;23316;50.718;7.328;2023-03-04T00:22:13;157.13;;;60.53;;
37455;SDS011;23316;50.718;7.328;2023-03-04T00:24:40;133.82;;;55.22;;
37455;SDS011;23316;50.718;7.328;2023-03-04T00:27:07;126.38;;;52.17;;
37455;SDS011;23316;50.718;7.328;2023-03-04T00:29:34;134.55;;;56.42;;
37455;SDS011;23316;50.718;7.328;2023-03-04T00:32:03;151.50;;;62.33;;
37455;SDS011;23316;50.718;7.328;2023-03-04T00:34:30;159.32;;;62.55;;
37455;SDS011;23316;50.718;7.328;2023-03-04T00:36:57;144.75;;;59.75;;
37455;SDS011;23316;50.718;7.328;2023-03-04T00:39:26;159.60;;;62.92;;
37455;SDS011;23316;50.718;7.328;2023-03-04T00:41:53;168.57;;;65.32;;
37455;SDS011;23316;50.718;7.328;2023-03-04T00:44:22;155.63;;;64.38;;
37455;SDS011;23316;50.718;7.328;2023-03-04T00:46:49;140.73;;;58.90;;
37455;SDS011;23316;50.718;7.328;2023-03-04T00:49:17;136.40;;;56.20;;
37455;SDS011;23316;50.718;7.328;2023-03-04T00:51:44;154.02;;;62.45;;
37455;SDS011;23316;50.718;7.328;2023-03-04T00:54:12;157.98;;;63.72;;
37455;SDS011;23316;50.718;7.328;2023-03-04T00:56:39;164.63;;;64.53;;
37455;SDS011;23316;50.718;7.328;2023-03-04T00:59:06;172.75;;;66.60;;
37455;SDS011;23316;50.718;7.328;2023-03-04T01:01:33;160.38;;;62.60;;
37455;SDS011;23316;50.718;7.328;2023-03-04T01:04:01;159.43;;;61.90;;
37455;SDS011;23316;50.718;7.328;2023-03-04T01:06:29;158.00;;;64.43;;
37455;SDS011;23316;50.718;7.328;2023-03-04T01:08:56;161.00;;;62.85;;
37455;SDS011;23316;50.718;7.328;2023-03-04T01:11:24;136.20;;;56.97;;
37455;SDS011;23316;50.718;7.328;2023-03-04T01:13:51;159.93;;;63.33;;
37455;SDS011;23316;50.718;7.328;2023-03-04T01:16:18;138.13;;;57.40;;
37455;SDS011;23316;50.718;7.328;2023-03-04T01:18:45;136.52;;;54.20;;
37455;SDS011;23316;50.718;7.328;2023-03-04T01:21:13;152.10;;;58.38;;
37455;SDS011;23316;50.718;7.328;2023-03-04T01:23:42;151.50;;;63.28;;
37455;SDS011;23316;50.718;7.328;2023-03-04T01:26:09;164.13;;;65.88;;
37455;SDS011;23316;50.718;7.328;2023-03-04T01:28:36;147.32;;;57.38;;
37455;SDS011;23316;50.718;7.328;2023-03-04T01:31:04;142.15;;;59.53;;
37455;SDS011;23316;50.718;7.328;2023-03-04T01:33:31;156.23;;;61.95;;
37455;SDS011;23316;50.718;7.328;2023-03-04T01:35:58;163.05;;;62.33;;
37455;SDS011;23316;50.718;7.328;2023-03-04T01:38:26;131.13;;;53.80;;
37455;SDS011;23316;50.718;7.328;2023-03-04T01:40:54;129.07;;;52.83;;
37455;SDS011;23316;50.718;7.328;2023-03-04T01:43:22;137.35;;;54.47;;
37455;SDS011;23316;50.718;7.328;2023-03-04T01:45:52;147.30;;;54.35;;
37455;SDS011;23316;50.718;7.328;2023-03-04T01:48:21;146.57;;;56.88;;
37455;SDS011;23316;50.718;7.328;2023-03-04T01:50:51;130.13;;;52.97;;
37455;SDS011;23316;50.718;7.328;2023-03-04T01:53:19;121.50;;;49.85;;
37455;SDS011;23316;50.718;7.328;2023-03-04T01:55:48;121.43;;;50.08;;
37455;SDS011;23316;50.718;7.328;2023-03-04T01:58:19;122.93;;;50.03;;
37455;SDS011;23316;50.718;7.328;2023-03-04T02:00:46;131.98;;;51.42;;
37455;SDS011;23316;50.718;7.328;2023-03-04T02:03:15;121.55;;;49.65;;
37455;SDS011;23316;50.718;7.328;2023-03-04T02:05:46;114.25;;;48.38;;
37455;SDS011;23316;50.718;7.328;2023-03-04T02:08:15;104.38;;;44.58;;
37455;SDS011;23316;50.718;7.328;2023-03-04T02:10:44;119.63;;;50.35;;
37455;SDS011;23316;50.718;7.328;2023-03-04T02:13:13;117.28;;;48.38;;
37455;SDS011;23316;50.718;7.328;2023-03-04T02:15:43;119.93;;;49.88;;
37455;SDS011;23316;50.718;7.328;2023-03-04T02:18:13;128.05;;;51.15;;
37455;SDS011;23316;50.718;7.328;2023-03-04T02:20:44;121.15;;;48.30;;
37455;SDS011;23316;50.718;7.328;2023-03-04T02:23:17;132.45;;;53.45;;
37455;SDS011;23316;50.718;7.328;2023-03-04T02:25:51;129.68;;;50.47;;
37455;SDS011;23316;50.718;7.328;2023-03-04T02:28:34;125.57;;;52.05;;
37455;SDS011;23316;50.718;7.328;2023-03-04T02:31:01;111.20;;;46.25;;
37455;SDS011;23316;50.718;7.328;2023-03-04T02:33:29;123.28;;;53.28;;
37455;SDS011;23316;50.718;7.328;2023-03-04T02:35:57;123.45;;;51.45;;
37455;SDS011;23316;50.718;7.328;2023-03-04T02:38:25;108.80;;;44.50;;
37455;SDS011;23316;50.718;7.328;2023-03-04T02:40:52;116.13;;;46.78;;
37455;SDS011;23316;50.718;7.328;2023-03-04T02:43:22;113.50;;;46.03;;
37455;SDS011;23316;50.718;7.328;2023-03-04T02:45:50;105.57;;;44.33;;
37455;SDS011;23316;50.718;7.328;2023-03-04T02:48:18;100.63;;;43.10;;
37455;SDS011;23316;50.718;7.328;2023-03-04T02:50:49;111.38;;;45.72;;
37455;SDS011;23316;50.718;7.328;2023-03-04T02:53:19;113.03;;;44.72;;
37455;SDS011;23316;50.718;7.328;2023-03-04T02:55:47;105.00;;;43.10;;
37455;SDS011;23316;50.718;7.328;2023-03-04T02:58:14;105.88;;;43.55;;
37455;SDS011;23316;50.718;7.328;2023-03-04T03:00:43;96.47;;;40.90;;
37455;SDS011;23316;50.718;7.328;2023-03-04T03:03:10;129.57;;;51.47;;
37455;SDS011;23316;50.718;7.328;2023-03-04T03:05:38;98.25;;;41.42;;
37455;SDS011;23316;50.718;7.328;2023-03-04T03:08:05;102.53;;;42.50;;
37455;SDS011;23316;50.718;7.328;2023-03-04T03:10:33;120.15;;;47.13;;
37455;SDS011;23316;50.718;7.328;2023-03-04T03:13:00;100.72;;;44.00;;
37455;SDS011;23316;50.718;7.328;2023-03-04T03:15:27;89.05;;;37.90;;
37455;SDS011;23316;50.718;7.328;2023-03-04T03:17:56;92.32;;;37.90;;
37455;SDS011;23316;50.718;7.328;2023-03-04T03:20:23;110.03;;;43.17;;
37455;SDS011;23316;50.718;7.328;2023-03-04T03:22:51;122.75;;;48.22;;
37455;SDS011;23316;50.718;7.328;2023-03-04T03:25:18;113.90;;;44.63;;
37455;SDS011;23316;50.718;7.328;2023-03-04T03:27:45;108.25;;;42.65;;
37455;SDS011;23316;50.718;7.328;2023-03-04T03:30:13;102.72;;;43.53;;
37455;SDS011;23316;50.718;7.328;2023-03-04T03:32:41;113.90;;;45.28;;
37455;SDS011;23316;50.718;7.328;2023-03-04T03:35:10;116.13;;;45.60;;
37455;SDS011;23316;50.718;7.328;2023-03-04T03:37:38;114.50;;;44.20;;
37455;SDS011;23316;50.718;7.328;2023-03-04T03:40:05;107.80;;;43.83;;
37455;SDS011;23316;50.718;7.328;2023-03-04T03:42:34;101.20;;;40.15;;
37455;SDS011;23316;50.718;7.328;2023-03-04T03:45:01;102.65;;;40.88;;
37455;SDS011;23316;50.718;7.328;2023-03-04T03:47:29;87.93;;;36.80;;
37455;SDS011;23316;50.718;7.328;2023-03-04T03:49:56;81.50;;;35.13;;
37455;SDS011;23316;50.718;7.328;2023-03-04T03:52:25;95.15;;;36.78;;
37455;SDS011;23316;50.718;7.328;2023-03-04T03:54:52;87.03;;;36.30;;
37455;SDS011;23316;50.718;7.328;2023-03-04T03:57:19;95.20;;;37.85;;
37455;SDS011;23316;50.718;7.328;2023-03-04T03:59:46;104.22;;;41.67;;
37455;SDS011;23316;50.718;7.328;2023-03-04T04:02:14;94.75;;;39.28;;
37455;SDS011;23316;50.718;7.328;2023-03-04T04:04:41;92.45;;;36.90;;
37455;SDS011;23316;50.718;7.328;2023-03-04T04:07:08;85.03;;;33.08;;
37455;SDS011;23316;50.718;7.328;2023-03-04T04:09:37;79.05;;;30.48;;
37455;SDS011;23316;50.718;7.328;2023-03-04T04:12:04;69.43;;;28.92;;
37455;SDS011;23316;50.718;7.328;2023-03-04T04:14:32;75.13;;;29.88;;
37455;SDS011;23316;50.718;7.328;2023-03-04T04:17:00;68.47;;;28.85;;
37455;SDS011;23316;50.718;7.328;2023-03-04T04:19:27;66.30;;;27.15;;
37455;SDS011;23316;50.718;7.328;2023-03-04T04:21:54;65.38;;;26.98;;
37455;SDS011;23316;50.718;7.328;2023-03-04T04:24:22;65.70;;;27.75;;
37455;SDS011;23316;50.718;7.328;2023-03-04T04:26:50;66.35;;;27.77;;
37455;SDS011;23316;50.718;7.328;2023-03-04T04:29:18;61.30;;;25.10;;
37455;SDS011;23316;50.718;7.328;2023-03-04T04:31:45;62.25;;;24.38;;
37455;SDS011;23316;50.718;7.328;2023-03-04T04:34:12;60.42;;;24.67;;
37455;SDS011;23316;50.718;7.328;2023-03-04T04:36:40;62.85;;;24.55;;
37455;SDS011;23316;50.718;7.328;2023-03-04T04:39:07;64.75;;;25.27;;
37455;SDS011;23316;50.718;7.328;2023-03-04T04:41:35;54.63;;;23.98;;
37455;SDS011;23316;50.718;7.328;2023-03-04T04:44:05;60.15;;;25.73;;
37455;SDS011;23316;50.718;7.328;2023-03-04T04:46:33;69.13;;;26.70;;
37455;SDS011;23316;50.718;7.328;2023-03-04T04:49:01;63.17;;;25.42;;
37455;SDS011;23316;50.718;7.328;2023-03-04T04:51:28;66.55;;;25.85;;
37455;SDS011;23316;50.718;7.328;2023-03-04T04:53:57;77.43;;;30.65;;
37455;SDS011;23316;50.718;7.328;2023-03-04T04:56:24;75.13;;;30.70;;
37455;SDS011;23316;50.718;7.328;2023-03-04T04:58:52;73.75;;;29.08;;
37455;SDS011;23316;50.718;7.328;2023-03-04T05:01:23;60.15;;;25.20;;
37455;SDS011;23316;50.718;7.328;2023-03-04T05:03:51;67.25;;;27.58;;
37455;SDS011;23316;50.718;7.328;2023-03-04T05:06:20;55.30;;;24.48;;
37455;SDS011;23316;50.718;7.328;2023-03-04T05:08:49;55.17;;;22.98;;
37455;SDS011;23316;50.718;7.328;2023-03-04T05:11:17;59.55;;;24.13;;
37455;SDS011;23316;50.718;7.328;2023-03-04T05:13:45;59.17;;;22.77;;
37455;SDS011;23316;50.718;7.328;2023-03-04T05:16:13;75.05;;;25.27;;
37455;SDS011;23316;50.718;7.328;2023-03-04T05:18:42;54.55;;;21.52;;
37455;SDS011;23316;50.718;7.328;2023-03-04T05:21:09;67.35;;;23.65;;
37455;SDS011;23316;50.718;7.328;2023-03-04T05:23:38;55.78;;;21.58;;
37455;SDS011;23316;50.718;7.328;2023-03-04T05:26:06;50.70;;;21.27;;
37455;SDS011;23316;50.718;7.328;2023-03-04T05:28:35;59.42;;;21.88;;
37455;SDS011;23316;50.718;7.328;2023-03-04T05:31:03;53.55;;;21.75;;
37455;SDS011;23316;50.718;7.328;2023-03-04T05:33:30;58.67;;;22.50;;
37455;SDS011;23316;50.718;7.328;2023-03-04T05:35:59;48.25;;;19.67;;
37455;SDS011;23316;50.718;7.328;2023-03-04T05:38:26;48.88;;;20.33;;
37455;SDS011;23316;50.718;7.328;2023-03-04T05:40:55;53.63;;;21.00;;
37455;SDS011;23316;50.718;7.328;2023-03-04T05:43:23;67.68;;;24.58;;
37455;SDS011;23316;50.718;7.328;2023-03-04T05:45:52;56.72;;;23.50;;
37455;SDS011;23316;50.718;7.328;2023-03-04T05:48:20;66.72;;;30.50;;
37455;SDS011;23316;50.718;7.328;2023-03-04T05:50:51;69.72;;;26.73;;
37455;SDS011;23316;50.718;7.328;2023-03-04T05:53:20;73.20;;;28.02;;
37455;SDS011;23316;50.718;7.328;2023-03-04T05:55:48;74.03;;;29.13;;
37455;SDS011;23316;50.718;7.328;2023-03-04T05:58:16;73.93;;;28.65;;
37455;SDS011;23316;50.718;7.328;2023-03-04T06:00:44;58.85;;;25.17;;
37455;SDS011;23316;50.718;7.328;2023-03-04T06:03:12;66.18;;;26.55;;
37455;SDS011;23316;50.718;7.328;2023-03-04T06:05:41;75.13;;;29.35;;
37455;SDS011;23316;50.718;7.328;2023-03-04T06:08:08;83.93;;;31.13;;
37455;SDS011;23316;50.718;7.328;2023-03-04T06:10:38;74.57;;;26.27;;
37455;SDS011;23316;50.718;7.328;2023-03-04T06:13:06;64.57;;;25.80;;
37455;SDS011;23316;50.718;7.328;2023-03-04T06:15:34;61.63;;;22.67;;
37455;SDS011;23316;50.718;7.328;2023-03-04T06:18:02;67.50;;;24.13;;
37455;SDS011;23316;50.718;7.328;2023-03-04T06:20:29;62.05;;;23.90;;
37455;SDS011;23316;50.718;7.328;2023-03-04T06:22:56;62.75;;;23.45;;
37455;SDS011;23316;50.718;7.328;2023-03-04T06:25:24;60.17;;;23.20;;
37455;SDS011;23316;50.718;7.328;2023-03-04T06:27:52;66.35;;;23.55;;
37455;SDS011;23316;50.718;7.328;2023-03-04T06:30:20;61.75;;;22.73;;
37455;SDS011;23316;50.718;7.328;2023-03-04T06:32:47;49.58;;;18.83;;
37455;SDS011;23316;50.718;7.328;2023-03-04T06:35:14;57.30;;;19.52;;
37455;SDS011;23316;50.718;7.328;2023-03-04T06:37:42;55.08;;;17.40;;
37455;SDS011;23316;50.718;7.328;2023-03-04T06:40:10;53.70;;;19.25;;
37455;SDS011;23316;50.718;7.328;2023-03-04T06:42:38;52.38;;;19.83;;
37455;SDS011;23316;50.718;7.328;2023-03-04T06:45:07;52.60;;;19.40;;
37455;SDS011;23316;50.718;7.328;2023-03-04T06:47:35;54.92;;;19.92;;
37455;SDS011;23316;50.718;7.328;2023-03-04T06:50:03;64.47;;;18.40;;
37455;SDS011;23316;50.718;7.328;2023-03-04T06:52:31;49.35;;;18.25;;
37455;SDS011;23316;50.718;7.328;2023-03-04T06:54:58;52.80;;;18.15;;
37455;SDS011;23316;50.718;7.328;2023-03-04T06:57:28;45.15;;;17.38;;
37455;SDS011;23316;50.718;7.328;2023-03-04T06:59:56;45.42;;;16.90;;
37455;SDS011;23316;50.718;7.328;2023-03-04T07:02:24;52.08;;;18.58;;
37455;SDS011;23316;50.718;7.328;2023-03-04T07:04:52;49.70;;;18.13;;
37455;SDS011;23316;50.718;7.328;2023-03-04T07:07:19;67.00;;;20.10;;
37455;SDS011;23316;50.718;7.328;2023-03-04T07:09:46;56.42;;;19.38;;
37455;SDS011;23316;50.718;7.328;2023-03-04T07:12:13;59.83;;;21.25;;
37455;SDS011;23316;50.718;7.328;2023-03-04T07:14:41;60.83;;;22.10;;
37455;SDS011;23316;50.718;7.328;2023-03-04T07:17:08;66.25;;;21.75;;
37455;SDS011;23316;50.718;7.328;2023-03-04T07:19:36;67.20;;;23.75;;
37455;SDS011;23316;50.718;7.328;2023-03-04T07:22:04;63.33;;;23.50;;
37455;SDS011;23316;50.718;7.328;2023-03-04T07:24:31;51.38;;;20.33;;
37455;SDS011;23316;50.718;7.328;2023-03-04T07:26:58;61.40;;;24.33;;
37455;SDS011;23316;50.718;7.328;2023-03-04T07:29:25;59.25;;;22.60;;
37455;SDS011;23316;50.718;7.328;2023-03-04T07:31:53;71.22;;;27.65;;
37455;SDS011;23316;50.718;7.328;2023-03-04T07:34:20;85.88;;;28.38;;
37455;SDS011;23316;50.718;7.328;2023-03-04T07:36:49;72.97;;;26.58;;
37455;SDS011;23316;50.718;7.328;2023-03-04T07:39:16;69.60;;;25.15;;
37455;SDS011;23316;50.718;7.328;2023-03-04T07:41:44;71.72;;;24.50;;
37455;SDS011;23316;50.718;7.328;2023-03-04T07:44:11;64.15;;;24.98;;
37455;SDS011;23316;50.718;7.328;2023-03-04T07:46:38;69.25;;;24.30;;
37455;SDS011;23316;50.718;7.328;2023-03-04T07:49:06;66.05;;;24.38;;
37455;SDS011;23316;50.718;7.328;2023-03-04T07:51:33;66.45;;;25.25;;
37455;SDS011;23316;50.718;7.328;2023-03-04T07:54:03;71.07;;;25.10;;
37455;SDS011;23316;50.718;7.328;2023-03-04T07:56:31;70.60;;;26.30;;
37455;SDS011;23316;50.718;7.328;2023-03-04T07:58:59;63.65;;;24.45;;
37455;SDS011;23316;50.718;7.328;2023-03-04T08:01:27;74.97;;;24.55;;
37455;SDS011;23316;50.718;7.328;2023-03-04T08:03:55;52.90;;;21.45;;
37455;SDS011;23316;50.718;7.328;2023-03-04T08:06:23;54.90;;;19.73;;
37455;SDS011;23316;50.718;7.328;2023-03-04T08:08:54;52.80;;;20.30;;
37455;SDS011;23316;50.718;7.328;2023-03-04T08:11:24;56.33;;;20.45;;
37455;SDS011;23316;50.718;7.328;2023-03-04T08:13:52;55.95;;;22.80;;
37455;SDS011;23316;50.718;7.328;2023-03-04T08:16:20;60.00;;;22.02;;
37455;SDS011;23316;50.718;7.328;2023-03-04T08:18:53;63.58;;;22.58;;
37455;SDS011;23316;50.718;7.328;2023-03-04T08:21:21;50.50;;;21.63;;
37455;SDS011;23316;50.718;7.328;2023-03-04T08:23:50;56.17;;;22.02;;
37455;SDS011;23316;50.718;7.328;2023-03-04T08:26:19;70.22;;;24.35;;
37455;SDS011;23316;50.718;7.328;2023-03-04T08:28:51;57.38;;;22.38;;
37455;SDS011;23316;50.718;7.328;2023-03-04T08:31:19;57.08;;;19.77;;
37455;SDS011;23316;50.718;7.328;2023-03-04T08:33:46;68.25;;;21.45;;
37455;SDS011;23316;50.718;7.328;2023-03-04T08:36:15;62.40;;;23.40;;
37455;SDS011;23316;50.718;7.328;2023-03-04T08:38:43;61.47;;;22.50;;
37455;SDS011;23316;50.718;7.328;2023-03-04T08:41:10;62.33;;;22.05;;
37455;SDS011;23316;50.718;7.328;2023-03-04T08:43:38;57.60;;;22.65;;
37455;SDS011;23316;50.718;7.328;2023-03-04T08:46:06;57.75;;;22.20;;
37455;SDS011;23316;50.718;7.328;2023-03-04T08:48:35;58.75;;;21.25;;
37455;SDS011;23316;50.718;7.328;2023-03-04T08:51:05;58.55;;;21.00;;
37455;SDS011;23316;50.718;7.328;2023-03-04T08:53:33;65.80;;;21.38;;
37455;SDS011;23316;50.718;7.328;2023-03-04T08:56:02;45.17;;;18.38;;
37455;SDS011;23316;50.718;7.328;2023-03-04T08:58:30;54.63;;;19.50;;
37455;SDS011;23316;50.718;7.328;2023-03-04T09:00:58;53.08;;;20.42;;
37455;SDS011;23316;50.718;7.328;2023-03-04T09:03:28;54.38;;;20.52;;
37455;SDS011;23316;50.718;7.328;2023-03-04T09:05:55;55.08;;;20.85;;
37455;SDS011;23316;50.718;7.328;2023-03-04T09:08:23;53.28;;;19.95;;
37455;SDS011;23316;50.718;7.328;2023-03-04T09:10:51;46.60;;;17.65;;
37455;SDS011;23316;50.718;7.328;2023-03-04T09:13:18;48.83;;;19.70;;
37455;SDS011;23316;50.718;7.328;2023-03-04T09:15:46;62.42;;;18.73;;
37455;SDS011;23316;50.718;7.328;2023-03-04T09:18:15;49.97;;;17.75;;
37455;SDS011;23316;50.718;7.328;2023-03-04T09:20:44;50.83;;;16.80;;
37455;SDS011;23316;50.718;7.328;2023-03-04T09:23:12;40.08;;;15.55;;
37455;SDS011;23316;50.718;7.328;2023-03-04T09:25:41;38.95;;;15.63;;
37455;SDS011;23316;50.718;7.328;2023-03-04T09:28:09;35.20;;;14.80;;
37455;SDS011;23316;50.718;7.328;2023-03-04T09:30:37;51.75;;;17.17;;
37455;SDS011;23316;50.718;7.328;2023-03-04T09:33:05;42.58;;;14.55;;
37455;SDS011;23316;50.718;7.328;2023-03-04T09:35:32;44.70;;;17.33;;
37455;SDS011;23316;50.718;7.328;2023-03-04T09:38:01;37.58;;;15.13;;
37455;SDS011;23316;50.718;7.328;2023-03-04T09:40:29;48.08;;;15.23;;
37455;SDS011;23316;50.718;7.328;2023-03-04T09:43:02;37.03;;;13.07;;
37455;SDS011;23316;50.718;7.328;2023-03-04T09:45:33;34.47;;;13.15;;
37455;SDS011;23316;50.718;7.328;2023-03-04T09:48:03;63.25;;;32.65;;
37455;SDS011;23316;50.718;7.328;2023-03-04T09:50:32;150.15;;;66.78;;
37455;SDS011;23316;50.718;7.328;2023-03-04T09:53:09;133.35;;;59.17;;
37455;SDS011;23316;50.718;7.328;2023-03-04T09:55:47;176.88;;;83.25;;
37455;SDS011;23316;50.718;7.328;2023-03-04T09:58:21;210.02;;;98.55;;
37455;SDS011;23316;50.718;7.328;2023-03-04T10:01:00;411.45;;;225.82;;
37455;SDS011;23316;50.718;7.328;2023-03-04T10:03:35;209.70;;;107.03;;
37455;SDS011;23316;50.718;7.328;2023-03-04T10:06:09;281.83;;;125.28;;
37455;SDS011;23316;50.718;7.328;2023-03-04T10:08:44;115.13;;;44.70;;
37455;SDS011;23316;50.718;7.328;2023-03-04T10:11:19;112.85;;;44.50;;
37455;SDS011;23316;50.718;7.328;2023-03-04T10:14:02;63.67;;;24.35;;
37455;SDS011;23316;50.718;7.328;2023-03-04T10:16:38;67.82;;;23.35;;
37455;SDS011;23316;50.718;7.328;2023-03-04T10:19:15;51.20;;;17.40;;
37455;SDS011;23316;50.718;7.328;2023-03-04T10:21:50;30.60;;;9.02;;
37455;SDS011;23316;50.718;7.328;2023-03-04T10:24:19;23.63;;;7.78;;
37455;SDS011;23316;50.718;7.328;2023-03-04T10:26:50;18.02;;;6.40;;
37455;SDS011;23316;50.718;7.328;2023-03-04T10:29:21;23.50;;;6.28;;
37455;SDS011;23316;50.718;7.328;2023-03-04T10:31:50;23.17;;;6.88;;
37455;SDS011;23316;50.718;7.328;2023-03-04T10:34:20;22.60;;;6.60;;
37455;SDS011;23316;50.718;7.328;2023-03-04T10:36:52;21.02;;;7.43;;
37455;SDS011;23316;50.718;7.328;2023-03-04T10:39:25;16.58;;;6.72;;
37455;SDS011;23316;50.718;7.328;2023-03-04T10:41:56;20.00;;;7.50;;
37455;SDS011;23316;50.718;7.328;2023-03-04T10:44:25;26.70;;;6.65;;
37455;SDS011;23316;50.718;7.328;2023-03-04T10:46:53;24.55;;;7.30;;
37455;SDS011;23316;50.718;7.328;2023-03-04T10:49:22;15.50;;;5.97;;
37455;SDS011;23316;50.718;7.328;2023-03-04T10:51:51;17.35;;;6.20;;
37455;SDS011;23316;50.718;7.328;2023-03-04T10:54:25;13.50;;;5.70;;
37455;SDS011;23316;50.718;7.328;2023-03-04T10:56:56;18.27;;;6.57;;
37455;SDS011;23316;50.718;7.328;2023-03-04T10:59:39;17.77;;;6.53;;
37455;SDS011;23316;50.718;7.328;2023-03-04T11:02:14;20.40;;;6.68;;
37455;SDS011;23316;50.718;7.328;2023-03-04T11:04:47;18.08;;;7.90;;
37455;SDS011;23316;50.718;7.328;2023-03-04T11:07:17;19.63;;;10.00;;
37455;SDS011;23316;50.718;7.328;2023-03-04T11:09:46;21.90;;;9.48;;
37455;SDS011;23316;50.718;7.328;2023-03-04T11:12:14;18.80;;;8.65;;
37455;SDS011;23316;50.718;7.328;2023-03-04T11:14:45;17.13;;;7.75;;
37455;SDS011;23316;50.718;7.328;2023-03-04T11:17:21;19.35;;;7.30;;
37455;SDS011;23316;50.718;7.328;2023-03-04T11:19:52;16.88;;;6.40;;
37455;SDS011;23316;50.718;7.328;2023-03-04T11:22:23;21.83;;;6.30;;
37455;SDS011;23316;50.718;7.328;2023-03-04T11:24:55;14.07;;;5.95;;
37455;SDS011;23316;50.718;7.328;2023-03-04T11:27:28;15.20;;;6.72;;
37455;SDS011;23316;50.718;7.328;2023-03-04T11:30:03;14.88;;;7.35;;
37455;SDS011;23316;50.718;7.328;2023-03-04T11:32:45;20.60;;;8.60;;
37455;SDS011;23316;50.718;7.328;2023-03-04T11:35:17;21.25;;;8.48;;
37455;SDS011;23316;50.718;7.328;2023-03-04T11:37:53;21.13;;;8.35;;
37455;SDS011;23316;50.718;7.328;2023-03-04T11:40:31;18.40;;;9.50;;
37455;SDS011;23316;50.718;7.328;2023-03-04T11:43:02;19.83;;;8.90;;
37455;SDS011;23316;50.718;7.328;2023-03-04T11:45:39;14.38;;;7.38;;
37455;SDS011;23316;50.718;7.328;2023-03-04T11:48:18;17.92;;;7.57;;
37455;SDS011;23316;50.718;7.328;2023-03-04T11:50:56;26.52;;;10.80;;
37455;SDS011;23316;50.718;7.328;2023-03-04T11:53:32;27.17;;;14.75;;
37455;SDS011;23316;50.718;7.328;2023-03-04T11:56:14;25.50;;;13.05;;
37455;SDS011;23316;50.718;7.328;2023-03-04T11:58:59;22.25;;;11.65;;
37455;SDS011;23316;50.718;7.328;2023-03-04T12:01:33;19.70;;;9.38;;
37455;SDS011;23316;50.718;7.328;2023-03-04T12:04:13;17.35;;;8.38;;
37455;SDS011;23316;50.718;7.328;2023-03-04T12:06:52;13.32;;;6.35;;
37455;SDS011;23316;50.718;7.328;2023-03-04T12:09:31;16.00;;;5.00;;
37455;SDS011;23316;50.718;7.328;2023-03-04T12:12:13;7.97;;;4.28;;
37455;SDS011;23316;50.718;7.328;2023-03-04T12:15:05;10.65;;;4.00;;
37455;SDS011;23316;50.718;7.328;2023-03-04T12:17:45;13.35;;;4.70;;
37455;SDS011;23316;50.718;7.328;2023-03-04T12:20:34;10.82;;;4.78;;
37455;SDS011;23316;50.718;7.328;2023-03-04T12:23:14;13.60;;;5.85;;
37455;SDS011;23316;50.718;7.328;2023-03-04T12:25:54;10.48;;;5.47;;
37455;SDS011;23316;50.718;7.328;2023-03-04T12:31:23;16.00;;;5.60;;
37455;SDS011;23316;50.718;7.328;2023-03-04T12:34:02;17.33;;;5.63;;
37455;SDS011;23316;50.718;7.328;2023-03-04T12:36:55;12.98;;;5.00;;
37455;SDS011;23316;50.718;7.328;2023-03-04T12:39:36;14.90;;;4.90;;
37455;SDS011;23316;50.718;7.328;2023-03-04T12:42:10;11.30;;;5.38;;
37455;SDS011;23316;50.718;7.328;2023-03-04T12:44:52;12.20;;;4.30;;
37455;SDS011;23316;50.718;7.328;2023-03-04T12:47:29;8.80;;;4.07;;
37455;SDS011;23316;50.718;7.328;2023-03-04T12:50:12;7.03;;;3.53;;
37455;SDS011;23316;50.718;7.328;2023-03-04T12:52:54;7.18;;;3.60;;
37455;SDS011;23316;50.718;7.328;2023-03-04T12:55:32;8.20;;;3.70;;
37455;SDS011;23316;50.718;7.328;2023-03-04T12:58:03;11.68;;;4.95;;
37455;SDS011;23316;50.718;7.328;2023-03-04T13:00:34;11.77;;;5.95;;
37455;SDS011;23316;50.718;7.328;2023-03-04T13:03:16;11.48;;;5.20;;
37455;SDS011;23316;50.718;7.328;2023-03-04T13:05:57;10.77;;;4.63;;
37455;SDS011;23316;50.718;7.328;2023-03-04T13:08:36;10.85;;;5.43;;
37455;SDS011;23316;50.718;7.328;2023-03-04T13:14:07;9.25;;;4.40;;
37455;SDS011;23316;50.718;7.328;2023-03-04T13:16:53;22.83;;;4.97;;
37455;SDS011;23316;50.718;7.328;2023-03-04T13:25:26;6.72;;;3.85;;
37455;SDS011;23316;50.718;7.328;2023-03-04T13:33:57;10.25;;;2.58;;
37455;SDS011;23316;50.718;7.328;2023-03-04T13:39:26;8.30;;;2.80;;
37455;SDS011;23316;50.718;7.328;2023-03-04T13:41:58;7.00;;;2.55;;
37455;SDS011;23316;50.718;7.328;2023-03-04T13:47:40;6.18;;;2.50;;
37455;SDS011;23316;50.718;7.328;2023-03-04T13:56:22;4.45;;;1.75;;
37455;SDS011;23316;50.718;7.328;2023-03-04T13:59:04;9.10;;;2.63;;
37455;SDS011;23316;50.718;7.328;2023-03-04T14:01:48;7.50;;;2.30;;
37455;SDS011;23316;50.718;7.328;2023-03-04T14:04:26;10.02;;;3.05;;
37455;SDS011;23316;50.718;7.328;2023-03-04T14:06:56;7.55;;;2.58;;
37455;SDS011;23316;50.718;7.328;2023-03-04T14:09:25;7.90;;;2.05;;
37455;SDS011;23316;50.718;7.328;2023-03-04T14:11:55;7.35;;;2.00;;
37455;SDS011;23316;50.718;7.328;2023-03-04T14:14:26;10.30;;;2.45;;
37455;SDS011;23316;50.718;7.328;2023-03-04T14:16:56;8.82;;;2.75;;
37455;SDS011;23316;50.718;7.328;2023-03-04T14:19:26;7.53;;;2.92;;
37455;SDS011;23316;50.718;7.328;2023-03-04T14:21:55;9.45;;;3.75;;
37455;SDS011;23316;50.718;7.328;2023-03-04T14:24:25;11.82;;;3.60;;
37455;SDS011;23316;50.718;7.328;2023-03-04T14:27:10;10.43;;;3.83;;
37455;SDS011;23316;50.718;7.328;2023-03-04T14:29:38;9.03;;;3.07;;
37455;SDS011;23316;50.718;7.328;2023-03-04T14:32:06;6.30;;;3.53;;
37455;SDS011;23316;50.718;7.328;2023-03-04T14:34:34;13.40;;;3.55;;
37455;SDS011;23316;50.718;7.328;2023-03-04T14:37:14;10.32;;;3.65;;
37455;SDS011;23316;50.718;7.328;2023-03-04T14:39:46;15.05;;;3.03;;
37455;SDS011;23316;50.718;7.328;2023-03-04T14:42:17;7.93;;;2.97;;
37455;SDS011;23316;50.718;7.328;2023-03-04T14:44:46;8.77;;;3.05;;
37455;SDS011;23316;50.718;7.328;2023-03-04T14:47:17;8.02;;;2.50;;
37455;SDS011;23316;50.718;7.328;2023-03-04T14:49:46;7.93;;;2.67;;
37455;SDS011;23316;50.718;7.328;2023-03-04T14:52:31;7.57;;;2.70;;
37455;SDS011;23316;50.718;7.328;2023-03-04T14:55:02;10.68;;;3.20;;
37455;SDS011;23316;50.718;7.328;2023-03-04T14:57:44;7.35;;;2.53;;
37455;SDS011;23316;50.718;7.328;2023-03-04T15:00:14;8.50;;;3.60;;
37455;SDS011;23316;50.718;7.328;2023-03-04T15:02:46;5.70;;;2.47;;
37455;SDS011;23316;50.718;7.328;2023-03-04T15:05:16;7.47;;;2.60;;
37455;SDS011;23316;50.718;7.328;2023-03-04T15:07:48;5.60;;;2.13;;
37455;SDS011;23316;50.718;7.328;2023-03-04T15:10:20;7.78;;;2.33;;